Time;durP1;ratioP1;P1;durP2;ratioP2;P2;SDS_P1;SDS_P2;PMS_P1;PMS_P2;Temp;Humidity;BMP_temperature;BMP_pressure;BME280_temperature;BME280_humidity;BME280_pressure;Samples;Min_cycle;Max_cycle;Signal;HPM_P1;HPM_P2
2023/05/05 00:00:19;;;;;;;6.90;2.83;;;;;;;;;;5049835;28;20493;-58
2023/05/05 00:02:45;;;;;;;5.07;2.92;;;;;;;;;;5050131;28;20463;-58
2023/05/05 00:05:13;;;;;;;6.47;3.28;;;;;;;;;;5049774;28;20394;-57
2023/05/05 00:07:39;;;;;;;5.38;3.00;;;;;;;;;;5049853;28;20587;-58
2023/05/05 00:10:05;;;;;;;4.22;3.00;;;;;;;;;;5049967;28;20397;-57
2023/05/05 00:12:31;;;;;;;4.28;2.92;;;;;;;;;;5049771;28;20884;-56
2023/05/05 00:14:57;;;;;;;5.27;2.97;;;;;;;;;;5049711;28;20996;-55
2023/05/05 00:17:23;;;;;;;4.82;2.80;;;;;;;;;;5049785;28;20470;-57
2023/05/05 00:19:50;;;;;;;4.57;3.07;;;;;;;;;;5049875;28;20436;-57
2023/05/05 00:22:18;;;;;;;4.47;2.92;;;;;;;;;;5049611;28;20489;-57
2023/05/05 00:24:44;;;;;;;4.90;3.30;;;;;;;;;;5049725;28;20406;-56
2023/05/05 00:27:10;;;;;;;3.80;2.85;;;;;;;;;;5049489;28;20556;-57
2023/05/05 00:29:36;;;;;;;4.65;2.97;;;;;;;;;;5049899;28;20484;-57
2023/05/05 00:32:02;;;;;;;4.55;3.00;;;;;;;;;;5050171;28;20820;-57
2023/05/05 00:34:28;;;;;;;5.40;3.20;;;;;;;;;;5052237;28;20416;-57
2023/05/05 00:36:54;;;;;;;4.30;2.92;;;;;;;;;;5053479;28;20408;-57
2023/05/05 00:39:21;;;;;;;4.10;2.90;;;;;;;;;;5053406;28;20480;-57
2023/05/05 00:41:47;;;;;;;3.72;2.75;;;;;;;;;;5053429;28;20427;-57
2023/05/05 00:44:13;;;;;;;4.68;2.80;;;;;;;;;;5053429;28;20883;-57
2023/05/05 00:46:41;;;;;;;6.40;3.25;;;;;;;;;;5053368;28;20444;-58
2023/05/05 00:49:07;;;;;;;3.22;2.60;;;;;;;;;;5053315;28;20413;-58
2023/05/05 00:51:33;;;;;;;4.30;2.90;;;;;;;;;;5053138;28;20402;-58
2023/05/05 00:54:00;;;;;;;4.95;2.90;;;;;;;;;;5053055;28;20677;-58
2023/05/05 00:56:27;;;;;;;5.87;3.30;;;;;;;;;;5052985;28;20503;-58
2023/05/05 00:58:53;;;;;;;3.53;3.00;;;;;;;;;;5053113;28;20444;-58
2023/05/05 01:01:19;;;;;;;5.65;3.40;;;;;;;;;;5052945;28;20759;-58
2023/05/05 01:03:45;;;;;;;3.45;2.65;;;;;;;;;;5052890;28;20485;-58
2023/05/05 01:06:16;;;;;;;5.22;3.13;;;;;;;;;;5052725;28;20429;-58
2023/05/05 01:08:49;;;;;;;5.22;3.00;;;;;;;;;;5052802;28;20604;-57
2023/05/05 01:11:19;;;;;;;4.50;3.20;;;;;;;;;;5052763;28;20401;-57
2023/05/05 01:13:53;;;;;;;4.93;3.30;;;;;;;;;;5052634;28;20883;-58
2023/05/05 01:16:23;;;;;;;5.53;3.30;;;;;;;;;;5052715;28;20456;-57
2023/05/05 01:18:53;;;;;;;7.15;3.35;;;;;;;;;;5052898;28;20475;-58
2023/05/05 01:21:22;;;;;;;5.88;3.30;;;;;;;;;;5052777;28;20420;-58
2023/05/05 01:23:57;;;;;;;5.30;3.17;;;;;;;;;;5052571;28;20825;-58
2023/05/05 01:26:37;;;;;;;4.75;2.90;;;;;;;;;;5052335;28;20484;-58
2023/05/05 01:29:13;;;;;;;4.30;3.13;;;;;;;;;;5052411;28;20420;-58
2023/05/05 01:31:50;;;;;;;6.05;2.80;;;;;;;;;;5052416;28;20511;-58
2023/05/05 01:34:17;;;;;;;4.07;2.90;;;;;;;;;;5052136;28;20417;-58
2023/05/05 01:36:47;;;;;;;4.20;3.00;;;;;;;;;;5052303;28;20412;-58
2023/05/05 01:39:15;;;;;;;4.78;3.05;;;;;;;;;;5052125;28;20409;-58
2023/05/05 01:41:42;;;;;;;5.45;3.00;;;;;;;;;;5052179;28;20405;-58
2023/05/05 01:44:10;;;;;;;6.03;3.20;;;;;;;;;;5051703;28;20825;-58
2023/05/05 01:46:36;;;;;;;4.63;3.25;;;;;;;;;;5052154;28;20413;-58
2023/05/05 01:49:04;;;;;;;3.88;2.85;;;;;;;;;;5052145;28;20749;-58
2023/05/05 01:51:31;;;;;;;5.40;3.15;;;;;;;;;;5051893;28;20779;-58
2023/05/05 01:53:59;;;;;;;7.32;3.40;;;;;;;;;;5052076;28;20456;-58
2023/05/05 01:56:25;;;;;;;4.88;3.17;;;;;;;;;;5051858;28;20445;-58
2023/05/05 01:58:52;;;;;;;5.80;3.42;;;;;;;;;;5052002;28;20443;-58
2023/05/05 02:01:20;;;;;;;6.18;3.30;;;;;;;;;;5051846;28;20451;-59
2023/05/05 02:03:47;;;;;;;5.20;3.20;;;;;;;;;;5051871;28;20405;-58
2023/05/05 02:06:15;;;;;;;6.75;3.03;;;;;;;;;;5051647;28;20416;-58
2023/05/05 02:08:41;;;;;;;5.80;3.15;;;;;;;;;;5051638;28;20413;-59
2023/05/05 02:11:08;;;;;;;5.55;3.10;;;;;;;;;;5051755;28;20435;-60
2023/05/05 02:13:36;;;;;;;3.90;2.80;;;;;;;;;;5051682;28;20737;-58
2023/05/05 02:16:02;;;;;;;4.82;3.30;;;;;;;;;;5051532;28;21001;-58
2023/05/05 02:18:29;;;;;;;6.85;3.10;;;;;;;;;;5051375;28;20409;-58
2023/05/05 02:20:56;;;;;;;6.60;3.70;;;;;;;;;;5051628;28;20425;-58
2023/05/05 02:23:23;;;;;;;4.88;3.03;;;;;;;;;;5051415;28;20408;-58
2023/05/05 02:25:49;;;;;;;4.78;3.20;;;;;;;;;;5051534;28;20408;-58
2023/05/05 02:28:19;;;;;;;4.90;3.08;;;;;;;;;;5051151;28;20426;-59
2023/05/05 02:30:50;;;;;;;4.47;2.92;;;;;;;;;;5051197;28;20409;-58
2023/05/05 02:33:17;;;;;;;4.90;3.45;;;;;;;;;;5051070;28;20445;-58
2023/05/05 02:35:44;;;;;;;6.22;3.58;;;;;;;;;;5051177;28;20461;-58
2023/05/05 02:38:12;;;;;;;4.53;3.15;;;;;;;;;;5051146;28;20814;-58
2023/05/05 02:40:41;;;;;;;6.88;3.40;;;;;;;;;;5050990;28;20401;-58
2023/05/05 02:43:09;;;;;;;5.23;3.33;;;;;;;;;;5051160;28;20413;-58
2023/05/05 02:45:35;;;;;;;6.32;3.75;;;;;;;;;;5050943;28;20500;-58
2023/05/05 02:48:02;;;;;;;6.72;3.30;;;;;;;;;;5050830;28;20426;-59
2023/05/05 02:50:29;;;;;;;6.60;3.40;;;;;;;;;;5050762;28;20745;-58
2023/05/05 02:52:55;;;;;;;7.10;3.03;;;;;;;;;;5052102;28;20200;-59
2023/05/05 02:55:21;;;;;;;8.20;3.63;;;;;;;;;;5051816;28;20693;-58
2023/05/05 02:57:52;;;;;;;5.72;3.53;;;;;;;;;;5050410;28;20962;-58
2023/05/05 03:00:22;;;;;;;6.03;3.10;;;;;;;;;;5052015;28;20299;-58
2023/05/05 03:03:05;;;;;;;3.53;3.20;;;;;;;;;;5052078;28;20224;-58
2023/05/05 03:05:34;;;;;;;4.50;3.20;;;;;;;;;;5051747;28;20196;-58
2023/05/05 03:08:02;;;;;;;5.40;3.03;;;;;;;;;;5051692;28;20278;-58
2023/05/05 03:10:30;;;;;;;4.20;3.30;;;;;;;;;;5051644;28;20291;-58
2023/05/05 03:12:59;;;;;;;7.80;4.03;;;;;;;;;;5051679;28;20199;-58
2023/05/05 03:15:26;;;;;;;7.60;3.63;;;;;;;;;;5051442;28;20230;-58
2023/05/05 03:17:52;;;;;;;4.33;3.57;;;;;;;;;;5051865;28;20196;-59
2023/05/05 03:20:19;;;;;;;6.47;3.58;;;;;;;;;;5050346;28;20872;-58
2023/05/05 03:22:46;;;;;;;5.80;3.27;;;;;;;;;;5050256;28;20864;-58
2023/05/05 03:25:12;;;;;;;6.57;3.70;;;;;;;;;;5050317;28;20500;-58
2023/05/05 03:27:38;;;;;;;7.70;4.00;;;;;;;;;;5050029;28;20745;-58
2023/05/05 03:30:06;;;;;;;6.90;3.90;;;;;;;;;;5050309;28;20408;-58
2023/05/05 03:32:32;;;;;;;6.17;3.60;;;;;;;;;;5050051;28;20819;-58
2023/05/05 03:34:58;;;;;;;6.53;3.50;;;;;;;;;;5051194;28;20483;-58
2023/05/05 03:37:24;;;;;;;5.43;3.20;;;;;;;;;;5051492;28;20312;-58
2023/05/05 03:39:50;;;;;;;6.45;3.83;;;;;;;;;;5050206;28;20496;-58
2023/05/05 03:42:16;;;;;;;6.20;3.60;;;;;;;;;;5051300;28;20299;-58
2023/05/05 03:44:42;;;;;;;3.83;2.90;;;;;;;;;;5051374;28;20608;-58
2023/05/05 03:47:09;;;;;;;6.33;3.63;;;;;;;;;;5051249;28;20224;-58
2023/05/05 03:49:36;;;;;;;4.47;3.07;;;;;;;;;;5051292;28;20223;-58
2023/05/05 03:52:02;;;;;;;4.53;3.30;;;;;;;;;;5051229;28;20238;-57
2023/05/05 03:54:28;;;;;;;6.57;3.87;;;;;;;;;;5051144;28;20196;-57
2023/05/05 03:56:55;;;;;;;5.00;3.50;;;;;;;;;;5051288;28;20192;-57
2023/05/05 03:59:21;;;;;;;6.20;3.50;;;;;;;;;;5051276;28;20196;-57
2023/05/05 04:01:48;;;;;;;5.82;3.80;;;;;;;;;;5049579;28;20491;-57
2023/05/05 04:04:16;;;;;;;6.50;3.43;;;;;;;;;;5051041;28;20224;-57
2023/05/05 04:06:42;;;;;;;6.13;3.63;;;;;;;;;;5051049;28;20500;-57
2023/05/05 04:09:08;;;;;;;5.67;3.90;;;;;;;;;;5055326;28;20692;-57
2023/05/05 04:11:34;;;;;;;8.43;3.97;;;;;;;;;;5055194;28;20201;-57
2023/05/05 04:14:00;;;;;;;6.28;3.65;;;;;;;;;;5053878;28;20417;-57
2023/05/05 04:16:26;;;;;;;6.25;3.60;;;;;;;;;;5053793;28;20397;-57
2023/05/05 04:18:52;;;;;;;7.30;4.10;;;;;;;;;;5053932;28;20470;-57
2023/05/05 04:21:19;;;;;;;6.80;4.28;;;;;;;;;;5053769;28;20397;-57
2023/05/05 04:23:45;;;;;;;4.97;3.65;;;;;;;;;;5053770;28;20888;-57
2023/05/05 04:26:11;;;;;;;7.10;4.13;;;;;;;;;;5053745;28;20404;-57
2023/05/05 04:28:37;;;;;;;7.72;4.32;;;;;;;;;;5053502;28;20421;-57
2023/05/05 04:31:03;;;;;;;6.45;4.03;;;;;;;;;;5053684;28;20476;-57
2023/05/05 04:33:29;;;;;;;3.80;3.37;;;;;;;;;;5054552;28;20248;-58
2023/05/05 04:35:55;;;;;;;6.22;4.10;;;;;;;;;;5053294;28;20764;-58
2023/05/05 04:38:23;;;;;;;7.10;4.10;;;;;;;;;;5053516;28;20401;-57
2023/05/05 04:40:49;;;;;;;6.38;3.60;;;;;;;;;;5053676;28;20405;-57
2023/05/05 04:43:15;;;;;;;7.32;4.10;;;;;;;;;;5053373;28;20405;-58
2023/05/05 04:45:41;;;;;;;6.57;4.07;;;;;;;;;;5053102;28;20791;-59
2023/05/05 04:48:07;;;;;;;5.60;4.00;;;;;;;;;;5053263;28;20417;-58
2023/05/05 04:50:33;;;;;;;6.60;4.07;;;;;;;;;;5053077;28;20775;-58
2023/05/05 04:52:59;;;;;;;6.67;4.13;;;;;;;;;;5053182;28;20638;-58
2023/05/05 04:55:27;;;;;;;6.90;4.10;;;;;;;;;;5053008;28;20420;-58
2023/05/05 04:57:54;;;;;;;7.63;4.45;;;;;;;;;;5052924;28;20483;-59
2023/05/05 05:00:20;;;;;;;6.75;3.97;;;;;;;;;;5053032;28;20412;-58
2023/05/05 05:02:46;;;;;;;7.38;4.35;;;;;;;;;;5052776;28;20769;-58
2023/05/05 05:05:12;;;;;;;7.75;4.05;;;;;;;;;;5052807;28;20401;-58
2023/05/05 05:07:38;;;;;;;7.30;4.00;;;;;;;;;;5052682;28;20417;-59
2023/05/05 05:10:05;;;;;;;5.85;3.97;;;;;;;;;;5053057;28;20397;-58
2023/05/05 05:12:32;;;;;;;6.43;3.90;;;;;;;;;;5052600;28;20991;-57
2023/05/05 05:14:58;;;;;;;6.28;4.05;;;;;;;;;;5052456;28;20504;-57
2023/05/05 05:17:25;;;;;;;7.32;4.15;;;;;;;;;;5052156;28;20472;-58
2023/05/05 05:19:51;;;;;;;6.80;4.32;;;;;;;;;;5051637;28;20409;-57
2023/05/05 05:22:17;;;;;;;5.87;3.90;;;;;;;;;;5052369;28;20479;-57
2023/05/05 05:24:43;;;;;;;8.15;4.18;;;;;;;;;;5052402;28;20432;-57
2023/05/05 05:27:10;;;;;;;7.72;4.35;;;;;;;;;;5052411;28;20449;-56
2023/05/05 05:29:37;;;;;;;6.55;3.90;;;;;;;;;;5052302;28;20911;-57
2023/05/05 05:32:03;;;;;;;9.65;4.15;;;;;;;;;;5052277;28;20408;-57
2023/05/05 05:34:29;;;;;;;9.05;4.40;;;;;;;;;;5051962;28;20416;-57
2023/05/05 05:36:55;;;;;;;7.80;4.20;;;;;;;;;;5052257;28;20455;-57
2023/05/05 05:39:22;;;;;;;7.88;4.55;;;;;;;;;;5052409;28;20397;-58
2023/05/05 05:41:48;;;;;;;9.38;4.60;;;;;;;;;;5052157;28;20448;-57
2023/05/05 05:44:14;;;;;;;8.95;4.45;;;;;;;;;;5052111;28;20436;-57
2023/05/05 05:46:41;;;;;;;8.38;4.40;;;;;;;;;;5051837;28;20448;-57
2023/05/05 05:49:07;;;;;;;6.55;3.88;;;;;;;;;;5052062;28;20417;-58
2023/05/05 05:51:33;;;;;;;6.72;4.07;;;;;;;;;;5051985;28;20497;-57
2023/05/05 05:53:59;;;;;;;8.50;4.07;;;;;;;;;;5051975;28;20526;-57
2023/05/05 05:56:25;;;;;;;7.03;4.45;;;;;;;;;;5052130;28;20491;-57
2023/05/05 05:58:51;;;;;;;8.68;4.10;;;;;;;;;;5051744;28;20882;-58
2023/05/05 06:01:17;;;;;;;5.38;3.63;;;;;;;;;;5051967;28;20394;-58
2023/05/05 06:03:45;;;;;;;5.75;4.00;;;;;;;;;;5051449;28;20447;-58
2023/05/05 06:06:10;;;;;;;6.18;3.80;;;;;;;;;;5051850;28;20903;-58
2023/05/05 06:08:36;;;;;;;6.97;4.15;;;;;;;;;;5051634;28;20413;-58
2023/05/05 06:11:02;;;;;;;7.70;4.00;;;;;;;;;;5051846;28;20479;-58
2023/05/05 06:13:28;;;;;;;6.63;4.05;;;;;;;;;;5051728;28;20424;-58
2023/05/05 06:15:54;;;;;;;8.38;4.47;;;;;;;;;;5051437;28;20500;-58
2023/05/05 06:18:20;;;;;;;9.95;4.40;;;;;;;;;;5051780;28;20405;-58
2023/05/05 06:20:50;;;;;;;11.15;4.30;;;;;;;;;;5060605;28;20896;-57
2023/05/05 06:23:16;;;;;;;7.30;4.20;;;;;;;;;;5071420;28;20513;-58
2023/05/05 06:25:42;;;;;;;6.78;4.28;;;;;;;;;;5071327;28;21051;-57
2023/05/05 06:28:08;;;;;;;6.18;3.95;;;;;;;;;;5071484;28;20415;-58
2023/05/05 06:30:34;;;;;;;7.88;4.13;;;;;;;;;;5071538;28;20754;-59
2023/05/05 06:33:00;;;;;;;7.15;4.40;;;;;;;;;;5071010;28;20461;-56
2023/05/05 06:35:26;;;;;;;8.97;4.23;;;;;;;;;;5071249;28;20477;-57
2023/05/05 06:37:53;;;;;;;5.68;4.28;;;;;;;;;;5071139;28;20743;-58
2023/05/05 06:40:19;;;;;;;11.13;4.18;;;;;;;;;;5071265;28;20403;-57
2023/05/05 06:42:45;;;;;;;7.18;4.57;;;;;;;;;;5071187;28;20483;-58
2023/05/05 06:45:12;;;;;;;6.00;3.78;;;;;;;;;;5070854;28;20396;-57
2023/05/05 06:47:38;;;;;;;6.93;4.10;;;;;;;;;;5070748;28;20412;-57
2023/05/05 06:50:04;;;;;;;7.20;4.40;;;;;;;;;;5070790;28;20400;-58
2023/05/05 06:52:31;;;;;;;5.38;3.90;;;;;;;;;;5070600;28;20955;-57
2023/05/05 06:54:58;;;;;;;8.77;4.10;;;;;;;;;;5070611;28;20845;-57
2023/05/05 06:57:24;;;;;;;6.50;4.13;;;;;;;;;;5070619;28;20890;-59
2023/05/05 06:59:50;;;;;;;5.53;3.80;;;;;;;;;;5070648;28;20400;-56
2023/05/05 07:02:17;;;;;;;4.93;3.63;;;;;;;;;;5070524;28;20463;-58
2023/05/05 07:04:43;;;;;;;7.18;3.80;;;;;;;;;;5070424;28;20392;-57
2023/05/05 07:07:09;;;;;;;6.60;4.00;;;;;;;;;;5070550;28;20412;-56
2023/05/05 07:09:35;;;;;;;7.22;3.97;;;;;;;;;;5070726;28;20459;-57
2023/05/05 07:12:03;;;;;;;7.00;3.72;;;;;;;;;;5070388;28;20411;-56
2023/05/05 07:14:29;;;;;;;7.75;4.30;;;;;;;;;;5070411;28;20451;-57
2023/05/05 07:16:55;;;;;;;6.38;4.00;;;;;;;;;;5070228;28;20434;-57
2023/05/05 07:19:22;;;;;;;7.05;3.85;;;;;;;;;;5070487;28;20404;-57
2023/05/05 07:21:48;;;;;;;7.28;4.25;;;;;;;;;;5070168;28;20403;-56
2023/05/05 07:24:14;;;;;;;6.80;4.10;;;;;;;;;;5070346;28;20493;-56
2023/05/05 07:26:40;;;;;;;5.95;3.75;;;;;;;;;;5070093;28;20405;-57
2023/05/05 07:29:07;;;;;;;7.60;3.60;;;;;;;;;;5070292;28;20399;-55
2023/05/05 07:31:33;;;;;;;6.13;3.63;;;;;;;;;;5070372;28;20907;-57
2023/05/05 07:33:59;;;;;;;7.00;4.43;;;;;;;;;;5069935;28;20419;-57
2023/05/05 07:36:26;;;;;;;5.68;3.65;;;;;;;;;;5070249;28;20392;-58
2023/05/05 07:38:52;;;;;;;6.30;3.97;;;;;;;;;;5070234;28;20810;-56
2023/05/05 07:41:18;;;;;;;6.03;3.70;;;;;;;;;;5070284;28;20410;-59
2023/05/05 07:43:45;;;;;;;6.93;4.25;;;;;;;;;;5069608;28;20943;-60
2023/05/05 07:46:12;;;;;;;6.80;3.93;;;;;;;;;;5070031;28;20426;-58
2023/05/05 07:48:40;;;;;;;6.50;4.00;;;;;;;;;;5070094;28;20415;-57
2023/05/05 07:51:09;;;;;;;9.07;4.53;;;;;;;;;;5070168;28;20877;-58
2023/05/05 07:53:35;;;;;;;6.35;4.35;;;;;;;;;;5070173;28;20410;-58
2023/05/05 07:56:01;;;;;;;6.90;3.92;;;;;;;;;;5069961;28;20403;-54
2023/05/05 07:58:27;;;;;;;6.22;4.07;;;;;;;;;;5070026;28;20838;-56
2023/05/05 08:00:53;;;;;;;8.15;4.50;;;;;;;;;;5070044;28;20484;-56
2023/05/05 08:03:23;;;;;;;7.75;4.22;;;;;;;;;;5070128;28;20479;-58
2023/05/05 08:05:49;;;;;;;11.05;4.35;;;;;;;;;;5070075;28;20399;-58
2023/05/05 08:08:15;;;;;;;6.35;4.20;;;;;;;;;;5070300;28;20790;-57
2023/05/05 08:10:41;;;;;;;6.78;4.25;;;;;;;;;;5070277;28;20407;-56
2023/05/05 08:13:07;;;;;;;6.43;4.10;;;;;;;;;;5070151;28;21100;-56
2023/05/05 08:15:33;;;;;;;8.18;4.25;;;;;;;;;;5070203;28;20399;-56
2023/05/05 08:17:59;;;;;;;6.45;4.43;;;;;;;;;;5070010;28;20391;-56
2023/05/05 08:20:28;;;;;;;6.33;4.00;;;;;;;;;;5070203;28;20433;-55
2023/05/05 08:22:55;;;;;;;6.97;4.50;;;;;;;;;;5070052;28;20923;-56
2023/05/05 08:25:21;;;;;;;6.57;4.50;;;;;;;;;;5070212;28;20400;-56
2023/05/05 08:27:47;;;;;;;8.05;4.55;;;;;;;;;;5069762;28;20467;-56
2023/05/05 08:30:15;;;;;;;7.55;4.35;;;;;;;;;;5069939;28;20407;-56
2023/05/05 08:32:41;;;;;;;8.05;4.70;;;;;;;;;;5069914;28;20400;-56
2023/05/05 08:35:07;;;;;;;7.50;4.75;;;;;;;;;;5069825;28;20465;-55
2023/05/05 08:37:35;;;;;;;7.13;4.13;;;;;;;;;;5069958;28;20438;-55
2023/05/05 08:40:01;;;;;;;6.20;4.32;;;;;;;;;;5069822;28;20410;-56
2023/05/05 08:42:29;;;;;;;6.07;4.40;;;;;;;;;;5069950;28;20497;-55
2023/05/05 08:44:55;;;;;;;9.38;4.88;;;;;;;;;;5069667;28;20411;-56
2023/05/05 08:47:21;;;;;;;7.20;4.95;;;;;;;;;;5069903;28;20438;-57
2023/05/05 08:49:47;;;;;;;5.50;4.53;;;;;;;;;;5069903;28;20424;-58
2023/05/05 08:52:15;;;;;;;8.82;5.10;;;;;;;;;;5069721;28;20461;-58
2023/05/05 08:54:56;;;;;;;10.23;4.97;;;;;;;;;;5071279;28;20415;-57
2023/05/05 08:57:26;;;;;;;7.97;4.70;;;;;;;;;;5073569;28;20535;-58
2023/05/05 08:59:52;;;;;;;7.75;4.97;;;;;;;;;;5073255;28;20453;-56
2023/05/05 09:02:22;;;;;;;8.00;4.65;;;;;;;;;;5073401;28;20403;-58
2023/05/05 09:04:48;;;;;;;8.57;5.28;;;;;;;;;;5073132;28;20471;-58
2023/05/05 09:07:14;;;;;;;6.25;4.40;;;;;;;;;;5073068;28;20937;-57
2023/05/05 09:09:42;;;;;;;8.13;4.73;;;;;;;;;;5073011;28;20462;-58
2023/05/05 09:12:08;;;;;;;5.80;4.68;;;;;;;;;;5072977;28;20539;-59
2023/05/05 09:14:34;;;;;;;6.88;4.80;;;;;;;;;;5073137;28;20400;-58
2023/05/05 09:17:02;;;;;;;8.27;5.05;;;;;;;;;;5072886;28;20465;-57
2023/05/05 09:19:28;;;;;;;8.32;5.63;;;;;;;;;;5073099;28;20418;-58
2023/05/05 09:21:54;;;;;;;6.43;4.75;;;;;;;;;;5072930;28;20403;-58
2023/05/05 09:24:20;;;;;;;7.15;5.00;;;;;;;;;;5073244;28;20457;-58
2023/05/05 09:26:48;;;;;;;8.23;5.10;;;;;;;;;;5072803;28;20761;-58
2023/05/05 09:29:18;;;;;;;9.90;5.43;;;;;;;;;;5072642;28;20407;-57
2023/05/05 09:31:44;;;;;;;10.00;5.20;;;;;;;;;;5072599;28;20490;-57
2023/05/05 09:34:13;;;;;;;7.57;4.97;;;;;;;;;;5072141;28;20849;-57
2023/05/05 09:36:44;;;;;;;10.50;5.23;;;;;;;;;;5072607;28;20415;-56
2023/05/05 09:39:10;;;;;;;7.95;5.20;;;;;;;;;;5072343;28;20407;-55
2023/05/05 09:41:37;;;;;;;6.75;4.95;;;;;;;;;;5072629;28;20920;-55
2023/05/05 09:44:05;;;;;;;7.13;4.88;;;;;;;;;;5072485;28;20415;-55
2023/05/05 09:46:31;;;;;;;7.63;5.57;;;;;;;;;;5072604;28;20403;-54
2023/05/05 09:49:11;;;;;;;6.88;5.60;;;;;;;;;;5072241;28;21193;-55
2023/05/05 09:51:37;;;;;;;8.38;5.50;;;;;;;;;;5072598;28;20410;-54
2023/05/05 09:54:03;;;;;;;7.93;5.53;;;;;;;;;;5072180;28;20465;-55
2023/05/05 09:56:39;;;;;;;9.90;6.00;;;;;;;;;;5072025;28;20411;-55
2023/05/05 09:59:09;;;;;;;7.65;5.20;;;;;;;;;;5072177;28;20448;-55
2023/05/05 10:01:35;;;;;;;6.97;5.10;;;;;;;;;;5072157;28;20924;-56
2023/05/05 10:04:01;;;;;;;8.10;4.90;;;;;;;;;;5071743;28;20465;-56
2023/05/05 10:06:38;;;;;;;6.07;5.03;;;;;;;;;;5071633;28;20449;-56
2023/05/05 10:09:04;;;;;;;7.93;4.68;;;;;;;;;;5071835;28;20543;-57
2023/05/05 10:11:31;;;;;;;5.67;4.60;;;;;;;;;;5071998;28;20392;-56
2023/05/05 10:13:57;;;;;;;7.50;5.10;;;;;;;;;;5071813;28;20455;-56
2023/05/05 10:16:25;;;;;;;6.10;5.10;;;;;;;;;;5071923;28;20539;-56
2023/05/05 10:18:51;;;;;;;7.00;4.88;;;;;;;;;;5071905;28;20437;-56
2023/05/05 10:21:19;;;;;;;7.85;4.80;;;;;;;;;;5071597;28;20908;-56
2023/05/05 10:23:48;;;;;;;7.18;4.85;;;;;;;;;;5071668;28;20405;-57
2023/05/05 10:26:14;;;;;;;6.20;4.77;;;;;;;;;;5071558;28;20493;-57
2023/05/05 10:28:43;;;;;;;8.50;5.43;;;;;;;;;;5071470;28;20419;-56
2023/05/05 10:31:13;;;;;;;6.20;4.72;;;;;;;;;;5071308;28;20403;-56
2023/05/05 10:33:47;;;;;;;6.85;5.00;;;;;;;;;;5071223;28;20816;-56
2023/05/05 10:36:14;;;;;;;6.32;4.95;;;;;;;;;;5071324;28;20750;-56
2023/05/05 10:38:41;;;;;;;6.07;4.80;;;;;;;;;;5071311;28;20407;-56
2023/05/05 10:41:08;;;;;;;6.40;4.78;;;;;;;;;;5071346;28;20431;-56
2023/05/05 10:43:35;;;;;;;9.60;5.55;;;;;;;;;;5071454;28;20410;-58
2023/05/05 10:46:01;;;;;;;8.80;5.78;;;;;;;;;;5071244;28;20407;-57
2023/05/05 10:48:31;;;;;;;7.78;5.40;;;;;;;;;;5071140;28;20560;-57
2023/05/05 10:51:01;;;;;;;9.73;5.80;;;;;;;;;;5071099;28;20437;-58
2023/05/05 10:53:28;;;;;;;8.38;5.10;;;;;;;;;;5071249;28;20884;-57
2023/05/05 10:56:08;;;;;;;6.95;5.20;;;;;;;;;;5070958;28;20399;-58
2023/05/05 10:58:35;;;;;;;7.85;5.63;;;;;;;;;;5071101;28;20475;-57
2023/05/05 11:01:01;;;;;;;7.97;4.97;;;;;;;;;;5069114;28;20396;-58
2023/05/05 11:03:27;;;;;;;8.85;4.97;;;;;;;;;;5070240;28;20549;-57
2023/05/05 11:06:13;;;;;;;7.25;5.18;;;;;;;;;;5070492;28;20799;-57
2023/05/05 11:08:41;;;;;;;7.28;5.05;;;;;;;;;;5070261;28;20921;-58
2023/05/05 11:11:09;;;;;;;6.60;4.37;;;;;;;;;;5071547;28;20600;-57
2023/05/05 11:13:35;;;;;;;9.35;5.82;;;;;;;;;;5070647;28;20411;-57
2023/05/05 11:16:01;;;;;;;7.32;5.40;;;;;;;;;;5070314;28;20816;-58
2023/05/05 11:18:29;;;;;;;7.50;5.43;;;;;;;;;;5069686;28;20951;-58
2023/05/05 11:21:02;;;;;;;9.00;5.37;;;;;;;;;;5071406;28;20201;-58
2023/05/05 11:23:30;;;;;;;7.63;5.43;;;;;;;;;;5070010;28;20852;-58
2023/05/05 11:25:56;;;;;;;10.33;5.40;;;;;;;;;;5071289;28;20211;-58
2023/05/05 11:28:24;;;;;;;8.80;5.23;;;;;;;;;;5071169;28;20306;-58
2023/05/05 11:31:05;;;;;;;6.80;5.30;;;;;;;;;;5070075;28;20808;-58
2023/05/05 11:33:32;;;;;;;8.77;5.60;;;;;;;;;;5069607;28;20408;-58
2023/05/05 11:35:59;;;;;;;8.20;5.43;;;;;;;;;;5069912;28;20476;-58
2023/05/05 11:38:29;;;;;;;8.65;6.20;;;;;;;;;;5069866;28;20418;-58
2023/05/05 11:40:59;;;;;;;9.90;5.88;;;;;;;;;;5069935;28;20411;-58
2023/05/05 11:43:25;;;;;;;7.45;5.13;;;;;;;;;;5069897;28;20427;-57
2023/05/05 11:46:09;;;;;;;7.50;5.67;;;;;;;;;;5070765;28;20477;-57
2023/05/05 11:48:44;;;;;;;6.88;6.00;;;;;;;;;;5070464;28;20498;-56
2023/05/05 11:51:11;;;;;;;11.25;6.45;;;;;;;;;;5070484;28;20407;-56
2023/05/05 11:53:41;;;;;;;8.45;5.80;;;;;;;;;;5070312;28;20444;-56
2023/05/05 11:56:09;;;;;;;8.35;5.88;;;;;;;;;;5070228;28;20886;-57
2023/05/05 11:58:35;;;;;;;9.13;6.43;;;;;;;;;;5070477;28;20754;-57
2023/05/05 12:01:04;;;;;;;8.30;5.60;;;;;;;;;;5070185;28;20396;-57
2023/05/05 12:03:33;;;;;;;8.60;6.40;;;;;;;;;;5070204;28;20399;-56
2023/05/05 12:05:59;;;;;;;9.68;6.32;;;;;;;;;;5070092;28;20411;-56
2023/05/05 12:08:26;;;;;;;9.33;6.43;;;;;;;;;;5069942;28;20407;-57
2023/05/05 12:10:52;;;;;;;8.68;5.65;;;;;;;;;;5070292;28;20904;-58
2023/05/05 12:13:19;;;;;;;9.55;6.85;;;;;;;;;;5070175;28;20404;-57
2023/05/05 12:15:45;;;;;;;8.35;7.10;;;;;;;;;;5070139;28;20407;-57
2023/05/05 12:18:17;;;;;;;12.80;7.63;;;;;;;;;;5069900;28;20404;-56
2023/05/05 12:20:43;;;;;;;7.63;6.60;;;;;;;;;;5071377;28;20285;-57
2023/05/05 12:23:11;;;;;;;8.43;7.43;;;;;;;;;;5071154;28;20637;-58
2023/05/05 12:25:37;;;;;;;10.10;7.37;;;;;;;;;;5071384;28;20261;-57
2023/05/05 12:28:04;;;;;;;11.37;7.70;;;;;;;;;;5071662;28;20229;-57
2023/05/05 12:30:31;;;;;;;9.93;7.40;;;;;;;;;;5075040;28;20653;-57
2023/05/05 12:33:01;;;;;;;12.27;7.60;;;;;;;;;;5074740;28;20306;-57
2023/05/05 12:35:28;;;;;;;8.47;6.97;;;;;;;;;;5074854;28;20683;-57
2023/05/05 12:37:54;;;;;;;9.60;7.30;;;;;;;;;;5074945;28;20202;-56
2023/05/05 12:40:41;;;;;;;9.65;8.73;;;;;;;;;;5073672;28;20470;-56
2023/05/05 12:43:07;;;;;;;9.82;8.77;;;;;;;;;;5068289;28;20411;-57
2023/05/05 12:45:35;;;;;;;10.10;8.60;;;;;;;;;;5073594;28;20473;-57
2023/05/05 12:48:01;;;;;;;8.30;7.38;;;;;;;;;;5073414;28;20497;-58
2023/05/05 12:50:30;;;;;;;8.77;6.95;;;;;;;;;;5073245;28;20701;-59
2023/05/05 12:52:56;;;;;;;8.27;7.10;;;;;;;;;;5073361;28;20416;-56
2023/05/05 12:55:35;;;;;;;8.35;7.38;;;;;;;;;;5073461;28;20407;-56
2023/05/05 12:58:03;;;;;;;10.10;7.10;;;;;;;;;;5074475;28;20196;-57
2023/05/05 13:00:29;;;;;;;8.57;7.60;;;;;;;;;;5074558;28;20203;-57
2023/05/05 13:02:56;;;;;;;8.27;7.47;;;;;;;;;;5074456;28;20201;-57
2023/05/05 13:05:30;;;;;;;9.67;7.07;;;;;;;;;;5074375;28;20268;-58
2023/05/05 13:07:56;;;;;;;9.43;7.00;;;;;;;;;;5073218;28;20491;-58
2023/05/05 13:10:23;;;;;;;8.10;6.60;;;;;;;;;;5073119;28;20870;-58
2023/05/05 13:12:50;;;;;;;9.63;7.95;;;;;;;;;;5073218;28;20406;-58
2023/05/05 13:15:16;;;;;;;9.82;8.50;;;;;;;;;;5073005;28;20403;-58
2023/05/05 13:17:42;;;;;;;9.90;8.80;;;;;;;;;;5072983;28;20487;-58
2023/05/05 13:20:10;;;;;;;11.23;8.50;;;;;;;;;;5072835;28;20402;-58
2023/05/05 13:22:36;;;;;;;10.55;8.55;;;;;;;;;;5073092;28;20427;-58
2023/05/05 13:25:02;;;;;;;8.20;7.40;;;;;;;;;;5072981;28;20404;-58
2023/05/05 13:27:28;;;;;;;12.02;8.75;;;;;;;;;;5072587;28;20398;-58
2023/05/05 13:29:54;;;;;;;11.35;8.90;;;;;;;;;;5072822;28;20418;-58
2023/05/05 13:32:20;;;;;;;11.40;9.13;;;;;;;;;;5072814;28;20470;-58
2023/05/05 13:34:46;;;;;;;8.88;7.22;;;;;;;;;;5072563;28;20503;-58
2023/05/05 13:37:14;;;;;;;12.33;8.73;;;;;;;;;;5072584;28;20403;-58
2023/05/05 13:39:40;;;;;;;10.93;8.77;;;;;;;;;;5072020;28;20415;-58
2023/05/05 13:42:06;;;;;;;10.23;9.13;;;;;;;;;;5072595;28;20878;-58
2023/05/05 13:44:32;;;;;;;11.18;8.18;;;;;;;;;;5072294;28;20400;-58
2023/05/05 13:46:58;;;;;;;10.05;9.05;;;;;;;;;;5072602;28;20449;-57
2023/05/05 13:49:24;;;;;;;11.50;9.20;;;;;;;;;;5072286;28;20785;-56
2023/05/05 13:51:50;;;;;;;9.52;8.32;;;;;;;;;;5072660;28;20801;-58
2023/05/05 13:54:17;;;;;;;10.07;8.70;;;;;;;;;;5072056;28;20391;-57
2023/05/05 13:56:43;;;;;;;8.13;7.03;;;;;;;;;;5072280;28;20407;-57
2023/05/05 13:59:09;;;;;;;11.07;8.38;;;;;;;;;;5072254;28;20406;-58
2023/05/05 14:01:35;;;;;;;9.68;8.68;;;;;;;;;;5072278;28;20423;-57
2023/05/05 14:04:01;;;;;;;9.00;7.70;;;;;;;;;;5071979;28;20419;-57
2023/05/05 14:06:27;;;;;;;9.60;7.93;;;;;;;;;;5072036;28;20399;-57
2023/05/05 14:08:53;;;;;;;8.45;7.57;;;;;;;;;;5072053;28;20412;-57
2023/05/05 14:11:21;;;;;;;8.90;7.43;;;;;;;;;;5072000;28;20412;-57
2023/05/05 14:13:47;;;;;;;9.25;7.65;;;;;;;;;;5071700;28;20483;-57
2023/05/05 14:16:13;;;;;;;9.40;8.50;;;;;;;;;;5071729;28;20400;-57
2023/05/05 14:18:39;;;;;;;10.88;7.57;;;;;;;;;;5071674;28;20762;-56
2023/05/05 14:21:05;;;;;;;9.25;8.13;;;;;;;;;;5071789;28;20948;-57
2023/05/05 14:23:31;;;;;;;7.88;7.15;;;;;;;;;;5071560;28;20461;-57
2023/05/05 14:25:57;;;;;;;11.35;9.25;;;;;;;;;;5071675;28;20392;-57
2023/05/05 14:28:25;;;;;;;10.10;9.10;;;;;;;;;;5071224;28;20407;-56
2023/05/05 14:30:51;;;;;;;9.80;8.60;;;;;;;;;;5071598;28;20400;-57
2023/05/05 14:33:17;;;;;;;11.95;8.70;;;;;;;;;;5071194;28;20412;-57
2023/05/05 14:35:43;;;;;;;9.98;8.27;;;;;;;;;;5071313;28;20944;-57
2023/05/05 14:38:09;;;;;;;9.88;8.07;;;;;;;;;;5071358;28;20414;-57
2023/05/05 14:40:35;;;;;;;7.75;6.95;;;;;;;;;;5071411;28;20410;-57